createdAt,value
2022-10-01T00:00:15.069Z,100.00
2022-10-01T00:02:43.206Z,100.00
2022-10-01T00:05:11.912Z,100.00
2022-10-01T00:07:40.628Z,100.00
2022-10-01T00:10:11.028Z,100.00
2022-10-01T00:12:46.724Z,100.00
2022-10-01T00:15:16.560Z,100.00
2022-10-01T00:17:44.749Z,100.00
2022-10-01T00:20:14.650Z,100.00
2022-10-01T00:22:42.939Z,100.00
2022-10-01T00:25:11.663Z,100.00
2022-10-01T00:27:41.135Z,100.00
2022-10-01T00:30:10.227Z,100.00
2022-10-01T00:32:39.081Z,100.00
2022-10-01T00:35:09.558Z,100.00
2022-10-01T00:37:37.793Z,100.00
2022-10-01T00:40:06.827Z,100.00
2022-10-01T00:42:35.604Z,100.00
2022-10-01T00:45:05.474Z,100.00
2022-10-01T00:47:36.153Z,100.00
2022-10-01T00:50:08.339Z,100.00
2022-10-01T00:52:40.199Z,100.00
2022-10-01T00:55:12.158Z,100.00
2022-10-01T00:57:41.494Z,100.00
2022-10-01T01:00:13.742Z,100.00
2022-10-01T01:02:42.157Z,100.00
2022-10-01T01:05:13.576Z,100.00
2022-10-01T01:07:45.969Z,100.00
2022-10-01T01:10:16.203Z,100.00
2022-10-01T01:13:08.343Z,100.00
2022-10-01T01:15:43.707Z,100.00
2022-10-01T01:18:18.350Z,100.00
2022-10-01T01:20:56.619Z,100.00
2022-10-01T01:23:43.899Z,100.00
2022-10-01T01:26:24.543Z,100.00
2022-10-01T01:28:58.616Z,100.00
2022-10-01T01:31:34.836Z,100.00
2022-10-01T01:34:06.979Z,100.00
2022-10-01T01:36:38.215Z,100.00
2022-10-01T01:39:10.618Z,100.00
2022-10-01T01:41:42.356Z,100.00
2022-10-01T01:44:16.311Z,100.00
2022-10-01T01:46:49.444Z,100.00
2022-10-01T01:49:20.223Z,100.00
2022-10-01T01:51:55.243Z,100.00
2022-10-01T01:54:23.458Z,100.00
2022-10-01T01:56:52.068Z,100.00
2022-10-01T01:59:21.849Z,100.00
2022-10-01T02:01:51.489Z,100.00
2022-10-01T02:04:24.555Z,100.00
2022-10-01T02:07:16.246Z,100.00
2022-10-01T02:09:53.312Z,100.00
2022-10-01T02:12:31.622Z,100.00
2022-10-01T02:15:10.045Z,100.00
2022-10-01T02:17:50.708Z,100.00
2022-10-01T02:20:22.073Z,100.00
2022-10-01T02:22:53.935Z,100.00
2022-10-01T02:25:27.092Z,100.00
2022-10-01T02:28:01.073Z,100.00
2022-10-01T02:30:33.184Z,100.00
2022-10-01T02:33:39.170Z,100.00
2022-10-01T02:36:11.305Z,100.00
2022-10-01T02:38:43.934Z,100.00
2022-10-01T02:41:14.813Z,100.00
2022-10-01T02:43:47.081Z,100.00
2022-10-01T02:46:22.169Z,100.00
2022-10-01T02:48:51.851Z,100.00
2022-10-01T02:51:28.422Z,100.00
2022-10-01T02:54:02.453Z,100.00
2022-10-01T02:56:49.033Z,100.00
2022-10-01T02:59:17.567Z,100.00
2022-10-01T03:01:46.976Z,100.00
2022-10-01T03:04:15.026Z,100.00
2022-10-01T03:06:43.021Z,100.00
2022-10-01T03:09:11.069Z,100.00
2022-10-01T03:11:39.187Z,100.00
2022-10-01T03:14:07.738Z,100.00
2022-10-01T03:16:35.744Z,100.00
2022-10-01T03:19:05.410Z,100.00
2022-10-01T03:21:33.615Z,100.00
2022-10-01T03:24:02.159Z,100.00
2022-10-01T03:26:30.239Z,100.00
2022-10-01T03:28:58.212Z,100.00
2022-10-01T03:31:26.393Z,100.00
2022-10-01T03:33:54.493Z,100.00
2022-10-01T03:36:23.862Z,100.00
2022-10-01T03:38:51.905Z,100.00
2022-10-01T03:41:20.009Z,100.00
2022-10-01T03:43:48.003Z,100.00
2022-10-01T03:46:16.350Z,100.00
2022-10-01T03:48:44.447Z,100.00
2022-10-01T03:51:15.562Z,100.00
2022-10-01T03:53:47.294Z,100.00
2022-10-01T03:56:15.475Z,100.00
2022-10-01T03:58:43.822Z,100.00
2022-10-01T04:01:12.047Z,100.00
2022-10-01T04:03:40.318Z,100.00
2022-10-01T04:06:08.732Z,100.00
2022-10-01T04:08:37.151Z,100.00
2022-10-01T04:11:08.239Z,100.00
2022-10-01T04:13:36.787Z,100.00
2022-10-01T04:16:05.961Z,100.00
2022-10-01T04:18:34.718Z,100.00
2022-10-01T04:21:02.880Z,100.00
2022-10-01T04:23:30.977Z,100.00
2022-10-01T04:26:02.390Z,100.00
2022-10-01T04:28:32.502Z,100.00
2022-10-01T04:31:14.790Z,100.00
2022-10-01T04:33:42.916Z,100.00
2022-10-01T04:36:11.023Z,100.00
2022-10-01T04:38:39.238Z,100.00
2022-10-01T04:41:07.553Z,100.00
2022-10-01T04:43:37.719Z,100.00
2022-10-01T04:46:05.849Z,100.00
2022-10-01T04:48:33.836Z,100.00
2022-10-01T04:51:01.876Z,100.00
2022-10-01T04:53:30.091Z,100.00
2022-10-01T04:55:58.164Z,100.00
2022-10-01T04:58:26.639Z,100.00
2022-10-01T05:01:01.027Z,100.00
2022-10-01T05:03:30.013Z,100.00
2022-10-01T05:05:57.984Z,100.00
2022-10-01T05:08:25.991Z,100.00
2022-10-01T05:10:54.245Z,100.00
2022-10-01T05:13:22.256Z,100.00
2022-10-01T05:15:52.242Z,100.00
2022-10-01T05:18:21.918Z,100.00
2022-10-01T05:20:50.576Z,100.00
2022-10-01T05:23:18.810Z,100.00
2022-10-01T05:25:47.334Z,100.00
2022-10-01T05:28:21.942Z,100.00
2022-10-01T05:30:51.146Z,100.00
2022-10-01T05:33:19.341Z,100.00
2022-10-01T05:35:48.781Z,100.00
2022-10-01T05:38:16.923Z,100.00
2022-10-01T05:40:47.379Z,100.00
2022-10-01T05:43:16.287Z,100.00
2022-10-01T05:45:44.281Z,100.00
2022-10-01T05:48:13.013Z,100.00
2022-10-01T05:50:42.517Z,100.00
2022-10-01T05:53:14.063Z,100.00
2022-10-01T05:55:43.009Z,100.00
2022-10-01T05:58:13.203Z,100.00
2022-10-01T06:00:43.050Z,100.00
2022-10-01T06:03:13.431Z,100.00
2022-10-01T06:05:41.726Z,100.00
2022-10-01T06:08:10.746Z,100.00
2022-10-01T06:10:40.472Z,100.00
2022-10-01T06:13:09.000Z,100.00
2022-10-01T06:15:39.065Z,100.00
2022-10-01T06:18:09.386Z,100.00
2022-10-01T06:20:38.532Z,100.00
2022-10-01T06:23:44.538Z,100.00
2022-10-01T06:26:42.908Z,100.00
2022-10-01T06:29:11.798Z,100.00
2022-10-01T06:31:39.987Z,100.00
2022-10-01T06:34:08.165Z,100.00
2022-10-01T06:36:36.231Z,100.00
2022-10-01T06:39:04.405Z,100.00
2022-10-01T06:41:33.939Z,100.00
2022-10-01T06:44:03.641Z,100.00
2022-10-01T06:46:46.363Z,100.00
2022-10-01T06:49:25.354Z,100.00
2022-10-01T06:52:22.317Z,100.00
2022-10-01T06:55:01.077Z,100.00
2022-10-01T06:57:34.164Z,100.00
2022-10-01T07:00:03.601Z,100.00
2022-10-01T07:02:32.476Z,100.00
2022-10-01T07:05:00.939Z,100.00
2022-10-01T07:07:31.070Z,100.00
2022-10-01T07:09:59.385Z,100.00
2022-10-01T07:12:27.829Z,100.00
2022-10-01T07:14:55.987Z,100.00
2022-10-01T07:17:25.475Z,100.00
2022-10-01T07:19:53.993Z,100.00
2022-10-01T07:22:24.172Z,100.00
2022-10-01T07:24:53.161Z,100.00
2022-10-01T07:27:21.267Z,100.00
2022-10-01T07:29:49.302Z,100.00
2022-10-01T07:32:17.348Z,100.00
2022-10-01T07:34:46.821Z,100.00
2022-10-01T07:37:15.182Z,100.00
2022-10-01T07:39:43.160Z,100.00
2022-10-01T07:42:11.197Z,100.00
2022-10-01T07:44:39.165Z,100.00
2022-10-01T07:47:07.187Z,100.00
2022-10-01T07:49:35.272Z,100.00
2022-10-01T07:52:10.885Z,100.00
2022-10-01T07:54:40.883Z,100.00
2022-10-01T07:57:09.002Z,100.00
2022-10-01T07:59:38.213Z,100.00
2022-10-01T08:02:06.325Z,100.00
2022-10-01T08:04:51.821Z,100.00
2022-10-01T08:07:21.299Z,100.00
2022-10-01T08:09:49.286Z,100.00
2022-10-01T08:12:17.840Z,100.00
2022-10-01T08:14:45.923Z,100.00
2022-10-01T08:17:13.895Z,100.00
2022-10-01T08:19:42.073Z,100.00
2022-10-01T08:22:10.243Z,100.00
2022-10-01T08:24:39.827Z,100.00
2022-10-01T08:27:07.874Z,100.00
2022-10-01T08:29:35.930Z,100.00
2022-10-01T08:32:04.068Z,100.00
2022-10-01T08:34:32.207Z,100.00
2022-10-01T08:37:00.309Z,100.00
2022-10-01T08:39:28.394Z,100.00
2022-10-01T08:42:04.005Z,100.00
2022-10-01T08:44:37.505Z,100.00
2022-10-01T08:47:13.823Z,100.00
2022-10-01T08:49:46.220Z,100.00
2022-10-01T08:52:21.874Z,100.00
2022-10-01T08:54:56.126Z,100.00
2022-10-01T08:57:33.237Z,100.00
2022-10-01T09:00:05.623Z,100.00
2022-10-01T09:02:36.327Z,100.00
2022-10-01T09:05:07.682Z,100.00
2022-10-01T09:07:52.914Z,100.00
2022-10-01T09:10:33.996Z,100.00
2022-10-01T09:13:21.897Z,100.00
2022-10-01T09:15:57.851Z,100.00
2022-10-01T09:18:37.789Z,100.00
2022-10-01T09:21:13.383Z,98.38
2022-10-01T09:23:52.993Z,100.00
2022-10-01T09:26:25.554Z,100.00
2022-10-01T09:28:56.924Z,93.45
2022-10-01T09:31:30.253Z,96.09
2022-10-01T09:34:04.008Z,96.35
2022-10-01T09:36:38.492Z,100.00
2022-10-01T09:39:18.122Z,96.18
2022-10-01T09:41:46.884Z,84.00
2022-10-01T09:44:20.049Z,91.72
2022-10-01T09:46:48.330Z,85.56
2022-10-01T09:49:26.819Z,83.60
2022-10-01T09:52:02.626Z,91.69
2022-10-01T09:54:36.092Z,93.24
2022-10-01T09:57:09.110Z,82.34
2022-10-01T09:59:45.422Z,82.49
2022-10-01T10:02:23.712Z,85.55
2022-10-01T10:05:00.769Z,89.54
2022-10-01T10:07:34.789Z,85.35
2022-10-01T10:10:12.781Z,82.61
2022-10-01T10:12:43.392Z,87.80
2022-10-01T10:15:19.380Z,91.74
2022-10-01T10:17:51.410Z,90.79
2022-10-01T10:20:26.634Z,77.16
2022-10-01T10:22:54.825Z,79.01
2022-10-01T10:25:26.016Z,77.75
2022-10-01T10:27:56.794Z,75.46
2022-10-01T10:30:26.912Z,76.64
2022-10-01T10:33:03.279Z,79.90
2022-10-01T10:35:31.837Z,82.69
2022-10-01T10:38:01.483Z,78.39
2022-10-01T10:40:34.457Z,72.13
2022-10-01T10:43:02.842Z,82.08
2022-10-01T10:45:49.617Z,73.44
2022-10-01T10:48:31.512Z,79.08
2022-10-01T10:51:02.483Z,74.63
2022-10-01T10:53:57.317Z,70.69
2022-10-01T10:57:01.607Z,72.32
2022-10-01T10:59:55.806Z,68.13
2022-10-01T11:02:36.645Z,64.72
2022-10-01T11:05:24.201Z,68.63
2022-10-01T11:08:24.471Z,64.90
2022-10-01T11:11:16.436Z,66.09
2022-10-01T11:14:23.857Z,70.65
2022-10-01T11:17:07.175Z,69.81
2022-10-01T11:19:45.414Z,69.14
2022-10-01T11:22:28.490Z,64.88
2022-10-01T11:25:06.814Z,66.56
2022-10-01T11:27:45.482Z,63.45
2022-10-01T11:30:20.504Z,63.25
2022-10-01T11:33:03.561Z,65.24
2022-10-01T11:35:49.371Z,64.57
2022-10-01T11:38:41.846Z,61.95
2022-10-01T11:41:26.815Z,60.56
2022-10-01T11:44:00.740Z,61.72
2022-10-01T11:46:38.007Z,65.60
2022-10-01T11:49:23.481Z,64.04
2022-10-01T11:52:06.022Z,65.28
2022-10-01T11:54:37.755Z,64.48
2022-10-01T11:57:24.018Z,66.42
2022-10-01T11:59:57.766Z,61.75
2022-10-01T12:02:32.072Z,60.95
2022-10-01T12:05:06.888Z,64.48
2022-10-01T12:07:43.181Z,61.60
2022-10-01T12:10:21.770Z,63.14
2022-10-01T12:12:58.034Z,61.25
2022-10-01T12:15:32.323Z,61.70
2022-10-01T12:18:06.096Z,63.70
2022-10-01T12:20:39.539Z,58.52
2022-10-01T12:23:15.624Z,58.52
2022-10-01T12:25:49.320Z,62.43
2022-10-01T12:28:24.455Z,56.94
2022-10-01T12:31:00.156Z,58.26
2022-10-01T12:33:51.246Z,62.84
2022-10-01T12:36:28.825Z,60.39
2022-10-01T12:39:15.560Z,59.12
2022-10-01T12:41:57.678Z,62.80
2022-10-01T12:44:50.095Z,61.56
2022-10-01T12:47:29.317Z,61.69
2022-10-01T12:50:11.444Z,60.38
2022-10-01T12:52:48.754Z,62.25
2022-10-01T12:55:30.844Z,62.44
2022-10-01T12:58:06.400Z,62.01
2022-10-01T13:00:40.756Z,62.01
2022-10-01T13:03:37.496Z,61.92
2022-10-01T13:06:31.000Z,60.63
2022-10-01T13:09:10.234Z,61.83
2022-10-01T13:11:53.532Z,59.80
2022-10-01T13:14:22.804Z,56.92
2022-10-01T13:17:01.440Z,57.92
2022-10-01T13:19:34.888Z,58.79
2022-10-01T13:22:14.845Z,59.29
2022-10-01T13:24:47.862Z,58.57
2022-10-01T13:27:22.598Z,60.58
2022-10-01T13:29:59.493Z,57.99
2022-10-01T13:32:30.745Z,57.47
2022-10-01T13:35:01.027Z,59.26
2022-10-01T13:37:37.618Z,58.50
2022-10-01T13:40:07.059Z,57.15
2022-10-01T13:42:45.599Z,58.98
2022-10-01T13:45:26.681Z,58.64
2022-10-01T13:48:06.677Z,58.50
2022-10-01T13:50:35.669Z,58.59
2022-10-01T13:53:14.515Z,60.72
2022-10-01T13:55:44.386Z,60.27
2022-10-01T13:58:32.039Z,58.88
2022-10-01T14:01:02.274Z,59.49
2022-10-01T14:03:43.950Z,58.49
2022-10-01T14:06:21.685Z,60.44
2022-10-01T14:09:07.683Z,58.73
2022-10-01T14:12:31.873Z,58.19
2022-10-01T14:15:42.575Z,58.75
2022-10-01T14:18:16.429Z,59.89
2022-10-01T14:21:06.732Z,61.20
2022-10-01T14:24:08.694Z,59.39
2022-10-01T14:26:44.757Z,60.28
2022-10-01T14:29:24.915Z,60.47
2022-10-01T14:32:03.784Z,60.53
2022-10-01T14:34:43.154Z,59.70
2022-10-01T14:37:17.344Z,61.35
2022-10-01T14:39:46.293Z,59.14
2022-10-01T14:42:17.679Z,59.58
2022-10-01T14:44:47.918Z,60.54
2022-10-01T14:47:20.697Z,61.53
2022-10-01T14:49:49.800Z,60.48
2022-10-01T14:52:33.139Z,61.27
2022-10-01T14:55:06.174Z,60.42
2022-10-01T14:57:37.537Z,59.29
2022-10-01T15:00:14.845Z,62.93
2022-10-01T15:02:47.948Z,61.98
2022-10-01T15:05:23.382Z,63.39
2022-10-01T15:07:51.996Z,60.80
2022-10-01T15:10:22.023Z,61.90
2022-10-01T15:12:52.846Z,64.31
2022-10-01T15:15:21.710Z,64.16
2022-10-01T15:18:00.462Z,63.86
2022-10-01T15:20:28.848Z,64.08
2022-10-01T15:23:01.181Z,62.89
2022-10-01T15:25:32.636Z,62.75
2022-10-01T15:28:00.554Z,63.60
2022-10-01T15:30:29.183Z,60.12
2022-10-01T15:32:59.049Z,60.22
2022-10-01T15:35:27.475Z,59.30
2022-10-01T15:38:00.560Z,58.93
2022-10-01T15:40:35.557Z,58.86
2022-10-01T15:43:26.394Z,57.01
2022-10-01T15:46:18.964Z,58.15
2022-10-01T15:48:49.147Z,58.51
2022-10-01T15:51:25.381Z,57.34
2022-10-01T15:53:55.036Z,56.81
2022-10-01T15:56:25.072Z,57.90
2022-10-01T15:58:56.441Z,57.50
2022-10-01T16:01:27.361Z,58.40
2022-10-01T16:04:05.956Z,59.39
2022-10-01T16:06:38.783Z,58.03
2022-10-01T16:09:12.937Z,56.80
2022-10-01T16:11:56.754Z,56.88
2022-10-01T16:14:39.354Z,58.53
2022-10-01T16:17:28.162Z,58.93
2022-10-01T16:20:02.443Z,57.25
2022-10-01T16:22:34.231Z,57.75
2022-10-01T16:25:07.027Z,59.18
2022-10-01T16:27:45.085Z,59.65
2022-10-01T16:30:20.702Z,59.55
2022-10-01T16:32:49.222Z,58.55
2022-10-01T16:35:21.633Z,58.40
2022-10-01T16:37:51.827Z,59.12
2022-10-01T16:40:22.107Z,60.33
2022-10-01T16:42:51.588Z,60.18
2022-10-01T16:45:22.731Z,59.82
2022-10-01T16:47:51.240Z,60.33
2022-10-01T16:50:22.579Z,60.08
2022-10-01T16:52:53.859Z,61.87
2022-10-01T16:55:24.846Z,62.16
2022-10-01T16:57:54.687Z,63.47
2022-10-01T17:00:24.525Z,62.25
2022-10-01T17:02:53.112Z,62.71
2022-10-01T17:05:25.301Z,63.15
2022-10-01T17:07:53.817Z,61.94
2022-10-01T17:10:24.169Z,61.87
2022-10-01T17:12:52.843Z,60.53
2022-10-01T17:15:26.443Z,60.56
2022-10-01T17:17:55.068Z,61.96
2022-10-01T17:20:26.508Z,61.69
2022-10-01T17:22:54.685Z,62.77
2022-10-01T17:25:24.996Z,62.10
2022-10-01T17:27:53.340Z,62.80
2022-10-01T17:30:21.689Z,62.40
2022-10-01T17:32:50.037Z,62.28
2022-10-01T17:35:18.330Z,63.23
2022-10-01T17:37:47.925Z,63.13
2022-10-01T17:40:16.331Z,64.35
2022-10-01T17:42:44.547Z,63.67
2022-10-01T17:45:14.498Z,64.29
2022-10-01T17:47:46.454Z,65.07
2022-10-01T17:50:16.095Z,62.96
2022-10-01T17:52:49.449Z,63.74
2022-10-01T17:55:19.874Z,64.13
2022-10-01T17:57:48.116Z,62.72
2022-10-01T18:00:16.359Z,63.23
2022-10-01T18:02:44.511Z,64.09
2022-10-01T18:05:14.892Z,64.44
2022-10-01T18:07:43.554Z,64.63
2022-10-01T18:10:14.162Z,64.63
2022-10-01T18:12:42.411Z,65.31
2022-10-01T18:15:10.968Z,66.19
2022-10-01T18:17:43.389Z,66.11
2022-10-01T18:20:14.802Z,66.22
2022-10-01T18:22:43.001Z,66.05
2022-10-01T18:25:13.960Z,65.33
2022-10-01T18:27:42.166Z,65.98
2022-10-01T18:30:11.360Z,65.92
2022-10-01T18:32:43.847Z,66.60
2022-10-01T18:35:20.576Z,67.10
2022-10-01T18:37:52.522Z,67.96
2022-10-01T18:40:26.396Z,68.55
2022-10-01T18:43:00.379Z,68.20
2022-10-01T18:45:42.047Z,67.73
2022-10-01T18:48:30.085Z,68.53
2022-10-01T18:51:07.902Z,68.38
2022-10-01T18:54:21.891Z,69.14
2022-10-01T18:56:59.771Z,69.33
2022-10-01T18:59:46.444Z,69.58
2022-10-01T19:02:30.514Z,70.64
2022-10-01T19:05:37.856Z,70.21
2022-10-01T19:08:20.862Z,70.92
2022-10-01T19:10:56.891Z,71.99
2022-10-01T19:13:38.251Z,71.29
2022-10-01T19:16:20.962Z,72.10
2022-10-01T19:19:03.091Z,71.94
2022-10-01T19:21:38.352Z,73.08
2022-10-01T19:24:19.153Z,73.70
2022-10-01T19:26:57.296Z,73.34
2022-10-01T19:29:47.199Z,74.04
2022-10-01T19:32:21.082Z,74.17
2022-10-01T19:34:54.898Z,73.14
2022-10-01T19:37:30.670Z,73.58
2022-10-01T19:40:04.449Z,73.73
2022-10-01T19:42:37.365Z,74.29
2022-10-01T19:45:19.891Z,74.59
2022-10-01T19:47:55.769Z,75.09
2022-10-01T19:50:28.546Z,75.31
2022-10-01T19:52:59.413Z,75.60
2022-10-01T19:55:29.905Z,76.00
2022-10-01T19:57:58.069Z,76.41
2022-10-01T20:00:27.624Z,76.92
2022-10-01T20:03:05.989Z,77.19
2022-10-01T20:05:42.801Z,77.43
2022-10-01T20:08:17.935Z,77.27
2022-10-01T20:10:52.789Z,77.93
2022-10-01T20:13:37.036Z,78.73
2022-10-01T20:16:15.209Z,77.95
2022-10-01T20:18:52.515Z,78.49
2022-10-01T20:21:41.700Z,79.14
2022-10-01T20:24:21.899Z,79.92
2022-10-01T20:26:56.896Z,79.75
2022-10-01T20:29:38.111Z,79.88
2022-10-01T20:32:15.672Z,79.89
2022-10-01T20:34:55.308Z,80.59
2022-10-01T20:37:37.609Z,81.31
2022-10-01T20:40:14.763Z,81.40
2022-10-01T20:42:47.426Z,82.72
2022-10-01T20:45:20.169Z,81.32
2022-10-01T20:47:55.202Z,81.85
2022-10-01T20:50:29.631Z,82.47
2022-10-01T20:53:10.027Z,82.51
2022-10-01T20:55:41.913Z,82.70
2022-10-01T20:58:16.772Z,82.58
2022-10-01T21:00:47.266Z,83.95
2022-10-01T21:03:32.003Z,84.03
2022-10-01T21:06:05.966Z,84.04
2022-10-01T21:08:42.186Z,84.08
2022-10-01T21:11:15.560Z,84.16
2022-10-01T21:13:50.392Z,84.32
2022-10-01T21:16:55.059Z,85.05
2022-10-01T21:19:43.069Z,84.46
2022-10-01T21:22:24.321Z,84.33
2022-10-01T21:25:03.415Z,84.98
2022-10-01T21:27:50.550Z,85.12
2022-10-01T21:30:20.529Z,85.95
2022-10-01T21:33:11.628Z,85.00
2022-10-01T21:35:50.028Z,85.87
2022-10-01T21:38:40.087Z,85.93
2022-10-01T21:41:27.966Z,87.36
2022-10-01T21:44:11.298Z,86.46
2022-10-01T21:46:46.266Z,87.88
2022-10-01T21:49:22.661Z,87.10
2022-10-01T21:52:04.774Z,87.24
2022-10-01T21:55:14.953Z,87.97
2022-10-01T21:58:01.539Z,87.57
2022-10-01T22:00:32.433Z,88.11
2022-10-01T22:03:19.188Z,87.55
2022-10-01T22:05:54.472Z,87.98
2022-10-01T22:08:33.429Z,88.38
2022-10-01T22:11:08.487Z,88.68
2022-10-01T22:13:40.312Z,89.54
2022-10-01T22:16:13.754Z,89.74
2022-10-01T22:18:45.613Z,89.25
2022-10-01T22:21:20.938Z,90.63
2022-10-01T22:23:58.004Z,90.51
2022-10-01T22:26:31.186Z,90.76
2022-10-01T22:29:01.989Z,91.70
2022-10-01T22:31:31.542Z,91.35
2022-10-01T22:34:04.746Z,91.28
2022-10-01T22:36:37.762Z,91.98
2022-10-01T22:39:12.789Z,92.07
2022-10-01T22:41:44.545Z,93.58
2022-10-01T22:44:15.791Z,93.98
2022-10-01T22:47:13.920Z,96.01
2022-10-01T22:49:56.186Z,97.82
2022-10-01T22:52:33.756Z,98.16
2022-10-01T22:55:16.634Z,100.00
2022-10-01T22:57:58.228Z,100.00
2022-10-01T23:00:26.908Z,100.00
2022-10-01T23:03:06.705Z,100.00
2022-10-01T23:05:44.308Z,100.00
2022-10-01T23:08:22.519Z,100.00
2022-10-01T23:11:02.646Z,100.00
2022-10-01T23:13:39.319Z,100.00
2022-10-01T23:16:15.792Z,100.00
2022-10-01T23:18:54.112Z,100.00
2022-10-01T23:21:35.241Z,100.00
2022-10-01T23:24:23.542Z,100.00
2022-10-01T23:27:04.518Z,100.00
2022-10-01T23:29:43.398Z,100.00
2022-10-01T23:32:27.656Z,100.00
2022-10-01T23:35:05.644Z,100.00
2022-10-01T23:38:02.348Z,100.00
2022-10-01T23:40:35.616Z,100.00
2022-10-01T23:43:12.308Z,100.00
2022-10-01T23:45:47.694Z,100.00
2022-10-01T23:48:22.275Z,100.00
2022-10-01T23:50:55.466Z,100.00
2022-10-01T23:53:27.432Z,100.00
2022-10-01T23:56:21.124Z,100.00
2022-10-01T23:58:58.228Z,100.00
